»·PEaware :: N20AC KFWS-KFSU

N20AC :: KFWS-KFSU

FLIGHT INFORMATION

Flight Status: Arrived
Operator: Privately registered:
United States
More flights under this callsign
Pilot: Christian A. (580)
Aircraft: BEECH AIRCRAFT BONANZA
(BE35)
More flights by this aircraft type
Origin: KFWS Ft Worth Spinks
United States
Destination: KFSU Ft Sumner Mun
United States
More flights between these airports :: More routes between these airports
Route: GTH
File this flight plan on PilotEdge
Remarks:
Altitude:
(Current/Filed)
10,500ft
Speed:
(Current/Filed)
168kts
Departed: 18-Sep-18 05:07 PM
Arrived: 18-Sep-18 06:20 PM
Distance/Time
Traveled:
364nm/1:13
Distance/Time
To Go:
Arrived

Flight Plot

Page will automatically refresh every two minutes.

Flight plan parsing failed; only flown route is shown


Map Options




Map Legend


Flown Route
Filed Route
Departure Airport
Arrival Airport
Navaid (VOR, NDB)
Fix

Horizontal Profiles

Position Reports

Time Latitude Longitude Heading Altitude Ground
Speed
18-Sep-18 17:08 33.661578 -100.032936 287 8496ft 176kts
18-Sep-18 17:09 33.681858 -100.085461 288 8496ft 177kts
18-Sep-18 17:10 33.702613 -100.139280 287 8475ft 178kts
18-Sep-18 17:11 33.724114 -100.195138 288 8132ft 186kts
18-Sep-18 17:12 33.745916 -100.251852 288 7824ft 187kts
18-Sep-18 17:13 33.767792 -100.308884 288 7526ft 187kts
18-Sep-18 17:14 33.784656 -100.366887 277 7275ft 183kts
18-Sep-18 17:15 33.796396 -100.426655 277 6936ft 186kts
18-Sep-18 17:16 33.808530 -100.487737 277 6535ft 185kts
18-Sep-18 17:17 33.820191 -100.546417 277 6510ft 177kts
18-Sep-18 17:18 33.831587 -100.603999 277 6498ft 177kts
18-Sep-18 17:19 33.846704 -100.660668 285 6499ft 179kts
18-Sep-18 17:20 33.864283 -100.716859 284 6503ft 179kts
18-Sep-18 17:21 33.881611 -100.773021 284 6505ft 179kts
18-Sep-18 17:22 33.898813 -100.829072 284 6508ft 179kts
18-Sep-18 17:23 33.916085 -100.885367 284 6512ft 179kts
18-Sep-18 17:24 33.933320 -100.941647 284 6513ft 179kts
18-Sep-18 17:25 33.950553 -100.998091 284 6514ft 179kts
18-Sep-18 17:26 33.967701 -101.054304 283 6518ft 179kts
18-Sep-18 17:27 33.984884 -101.110809 284 6517ft 179kts
18-Sep-18 17:28 34.002003 -101.167149 284 6517ft 179kts
18-Sep-18 17:29 34.019041 -101.223393 284 6522ft 178kts
18-Sep-18 17:30 34.036031 -101.279549 283 6521ft 178kts
18-Sep-18 17:31 34.053056 -101.335926 284 6524ft 179kts
18-Sep-18 17:32 34.070071 -101.392315 283 6525ft 179kts
18-Sep-18 17:33 34.086984 -101.448561 283 6526ft 178kts
18-Sep-18 17:34 34.103940 -101.505075 284 6529ft 178kts
18-Sep-18 17:35 34.120837 -101.561494 284 6527ft 179kts
18-Sep-18 17:36 34.137698 -101.617845 283 6529ft 178kts
18-Sep-18 17:37 34.154602 -101.674449 284 6526ft 179kts
18-Sep-18 17:38 34.171413 -101.730896 283 6528ft 178kts
18-Sep-18 17:39 34.188202 -101.787355 283 6529ft 178kts
18-Sep-18 17:40 34.205015 -101.843982 284 6528ft 179kts
18-Sep-18 17:41 34.221745 -101.900532 283 6532ft 178kts
18-Sep-18 17:42 34.238526 -101.957316 283 6532ft 178kts
18-Sep-18 17:43 34.255199 -102.013813 283 6530ft 179kts
18-Sep-18 17:44 34.271925 -102.070611 283 6535ft 178kts
18-Sep-18 17:45 34.288548 -102.127108 283 6533ft 179kts
18-Sep-18 17:46 34.305183 -102.183890 283 6537ft 178kts
18-Sep-18 17:47 34.321768 -102.240614 283 6536ft 179kts
18-Sep-18 17:48 34.338383 -102.297425 283 6540ft 179kts
18-Sep-18 17:49 34.354976 -102.354339 283 6545ft 179kts
18-Sep-18 17:50 34.371542 -102.411315 283 6551ft 179kts
18-Sep-18 17:51 34.388079 -102.468198 283 6567ft 179kts
18-Sep-18 17:52 34.404560 -102.525119 283 6570ft 179kts
18-Sep-18 17:53 34.421123 -102.582419 283 6564ft 180kts
18-Sep-18 17:54 34.437703 -102.639883 283 6553ft 180kts
18-Sep-18 17:55 34.454165 -102.697035 284 6553ft 180kts
18-Sep-18 17:56 34.470677 -102.754469 283 6556ft 180kts
18-Sep-18 17:57 34.487164 -102.811829 283 6558ft 180kts
18-Sep-18 17:58 34.495462 -102.869828 263 6560ft 174kts
18-Sep-18 17:59 34.495207 -102.928864 264 6565ft 174kts
18-Sep-18 18:00 34.495110 -102.987718 264 6566ft 175kts
18-Sep-18 18:01 34.495029 -103.046991 264 6567ft 175kts
18-Sep-18 18:02 34.494935 -103.105974 264 6579ft 175kts
18-Sep-18 18:03 34.494799 -103.165091 264 6587ft 175kts
18-Sep-18 18:04 34.494640 -103.224008 264 6603ft 175kts
18-Sep-18 18:05 34.494466 -103.283071 264 6623ft 175kts
18-Sep-18 18:06 34.494269 -103.342118 264 6646ft 175kts
18-Sep-18 18:07 34.494030 -103.401355 264 6650ft 176kts
18-Sep-18 18:08 34.493751 -103.460613 264 6642ft 176kts
18-Sep-18 18:09 34.493434 -103.520035 264 6640ft 176kts
18-Sep-18 18:10 34.493133 -103.579473 264 6634ft 176kts
18-Sep-18 18:11 34.492771 -103.638764 264 6630ft 176kts
18-Sep-18 18:12 34.492381 -103.698200 264 6626ft 176kts
18-Sep-18 18:13 34.491935 -103.758223 264 6428ft 184kts
18-Sep-18 18:14 34.491494 -103.821435 266 5914ft 190kts
18-Sep-18 18:15 34.490980 -103.885109 266 5609ft 184kts
18-Sep-18 18:16 34.490465 -103.946095 266 5601ft 179kts
18-Sep-18 18:17 34.489918 -104.006285 266 5596ft 178kts
18-Sep-18 18:18 34.489351 -104.066501 266 5595ft 179kts
18-Sep-18 18:19 34.488757 -104.126882 266 5591ft 179kts
18-Sep-18 18:20 34.505598 -104.177698 300 5036ft 136kts
18-Sep-18 18:21 34.495809 -104.206627 220 4273ft 85kts
18-Sep-18 18:22 34.488756 -104.215902 341 4168ft 8kts
18-Sep-18 18:23 34.490761 -104.219429 214 4168ft 0kts
18-Sep-18 18:24 34.490760 -104.219429 214 4168ft 0kts
18-Sep-18 18:25 34.490760 -104.219429 214 4168ft 0kts
18-Sep-18 18:26 34.490760 -104.219429 214 4168ft 0kts
18-Sep-18 18:27 34.490760 -104.219429 214 4168ft 0kts
18-Sep-18 18:28 34.490760 -104.219429 214 4168ft 0kts

Navigation Log

Ident Type
Flight plan parsing failed, navigation log unavailable